Time;durP1;ratioP1;P1;durP2;ratioP2;P2;SDS_P1;SDS_P2;PMS_P1;PMS_P2;Temp;Humidity;BMP_temperature;BMP_pressure;BME280_temperature;BME280_humidity;BME280_pressure;Samples;Min_cycle;Max_cycle;Signal;HPM_P1;HPM_P2
2023/07/04 00:00:27;;;;;;;;;;;;;;;23.96;57.51;99497.88;3182144;27;19923;-69
2023/07/04 00:01:58;;;;;;;;;;;;;;;23.97;57.06;99496.84;3174179;27;20043;-69
2023/07/04 00:03:31;;;;;;;;;;;;;;;23.99;57.20;99494.06;3184125;27;19919;-69
2023/07/04 00:05:03;;;;;;;;;;;;;;;23.99;57.46;99499.38;3184060;27;19976;-68
2023/07/04 00:06:36;;;;;;;;;;;;;;;24.00;57.18;99493.03;3183878;27;19998;-68
2023/07/04 00:08:08;;;;;;;;;;;;;;;24.01;57.38;99500.03;3184388;27;20317;-68
2023/07/04 00:09:39;;;;;;;;;;;;;;;24.02;57.38;99504.38;3183845;27;19919;-68
2023/07/04 00:11:11;;;;;;;;;;;;;;;24.03;57.22;99495.38;3184087;27;19923;-68
2023/07/04 00:12:43;;;;;;;;;;;;;;;24.02;57.51;99493.72;3183840;27;19926;-68
2023/07/04 00:14:14;;;;;;;;;;;;;;;24.03;57.23;99493.53;3183538;27;19920;-68
2023/07/04 00:15:46;;;;;;;;;;;;;;;24.03;57.56;99496.22;3184283;27;19927;-68
2023/07/04 00:17:19;;;;;;;;;;;;;;;24.02;57.61;99493.72;3183321;27;20415;-68
2023/07/04 00:18:50;;;;;;;;;;;;;;;23.99;57.86;99496.72;3183993;27;19919;-68
2023/07/04 00:20:22;;;;;;;;;;;;;;;23.94;58.27;99497.19;3183970;27;19919;-68
2023/07/04 00:21:57;;;;;;;;;;;;;;;23.89;58.47;99494.16;3184096;27;19928;-68
2023/07/04 00:23:29;;;;;;;;;;;;;;;23.83;58.40;99487.66;3183858;27;19926;-69
2023/07/04 00:25:00;;;;;;;;;;;;;;;23.82;58.48;99491.34;3183840;27;19926;-69
2023/07/04 00:26:32;;;;;;;;;;;;;;;23.82;58.76;99491.34;3183760;27;19919;-69
2023/07/04 00:28:05;;;;;;;;;;;;;;;23.83;58.51;99487.66;3183685;27;19926;-69
2023/07/04 00:29:36;;;;;;;;;;;;;;;23.83;58.72;99486.84;3183787;27;19923;-68
2023/07/04 00:31:08;;;;;;;;;;;;;;;23.82;58.83;99491.34;3183983;27;19919;-68
2023/07/04 00:32:40;;;;;;;;;;;;;;;23.82;58.62;99490.50;3183787;27;19919;-68
2023/07/04 00:34:12;;;;;;;;;;;;;;;23.81;58.59;99495.00;3183979;27;19930;-68
2023/07/04 00:35:43;;;;;;;;;;;;;;;23.81;58.85;99496.81;3183958;27;19949;-68
2023/07/04 00:37:21;;;;;;;;;;;;;;;23.81;58.90;99499.47;3183863;27;19920;-68
2023/07/04 00:38:56;;;;;;;;;;;;;;;23.81;58.90;99494.16;3171044;28;20387;-68
2023/07/04 00:40:28;;;;;;;;;;;;;;;23.80;58.93;99497.81;3183596;27;20386;-68
2023/07/04 00:42:00;;;;;;;;;;;;;;;23.79;58.83;99488.19;3183742;27;19923;-69
2023/07/04 00:43:46;;;;;;;;;;;;;;;23.77;58.65;99490.97;3173157;27;20403;-69
2023/07/04 00:45:20;;;;;;;;;;;;;;;23.73;59.07;99488.81;3169233;28;19931;-69
2023/07/04 00:46:54;;;;;;;;;;;;;;;23.68;59.46;99494.56;3182955;27;20361;-68
2023/07/04 00:48:26;;;;;;;;;;;;;;;23.64;59.53;99497.75;3183634;27;20265;-69
2023/07/04 00:49:59;;;;;;;;;;;;;;;23.60;59.67;99494.53;3183806;27;19923;-68
2023/07/04 00:51:31;;;;;;;;;;;;;;;23.57;59.38;99498.38;3182046;27;19919;-68
2023/07/04 00:53:06;;;;;;;;;;;;;;;23.55;59.48;99497.69;3184180;27;19984;-68
2023/07/04 00:54:40;;;;;;;;;;;;;;;23.57;59.66;99500.19;3177879;27;19932;-68
2023/07/04 00:56:12;;;;;;;;;;;;;;;23.58;59.71;99497.38;3179713;27;19923;-68
2023/07/04 00:57:46;;;;;;;;;;;;;;;23.58;59.75;99497.38;3183385;27;19920;-68
2023/07/04 00:59:16;;;;;;;;;;;;;;;23.57;59.92;99506.34;3183606;27;19923;-69
2023/07/04 01:00:48;;;;;;;;;;;;;;;23.57;59.58;99501.03;3178696;27;19920;-68
2023/07/04 01:02:21;;;;;;;;;;;;;;;23.56;59.86;99501.19;3181248;27;20010;-69
2023/07/04 01:03:54;;;;;;;;;;;;;;;23.56;59.70;99501.19;3183349;27;19956;-69
2023/07/04 01:05:30;;;;;;;;;;;;;;;23.52;60.05;99497.19;3183661;27;19964;-69
2023/07/04 01:07:07;;;;;;;;;;;;;;;23.50;59.75;99493.84;3183291;27;20336;-68
2023/07/04 01:08:41;;;;;;;;;;;;;;;23.47;60.01;99502.97;3183472;27;19929;-68
2023/07/04 01:10:16;;;;;;;;;;;;;;;23.46;59.90;99493.34;3183618;27;20368;-69
2023/07/04 01:11:49;;;;;;;;;;;;;;;23.46;60.13;99497.84;3183384;27;19962;-68
2023/07/04 01:13:33;;;;;;;;;;;;;;;23.47;60.00;99496.84;3183304;27;19927;-68
2023/07/04 01:15:06;;;;;;;;;;;;;;;23.45;60.07;99493.50;3183693;27;19923;-68
2023/07/04 01:16:37;;;;;;;;;;;;;;;23.43;60.37;99491.00;3180667;27;20400;-68
2023/07/04 01:18:09;;;;;;;;;;;;;;;23.43;60.46;99491.00;3173195;27;19927;-68
2023/07/04 01:19:41;;;;;;;;;;;;;;;23.41;60.53;99489.50;3183354;27;19923;-69
2023/07/04 01:21:14;;;;;;;;;;;;;;;23.39;60.37;99498.44;3183478;27;19919;-68
2023/07/04 01:22:49;;;;;;;;;;;;;;;23.38;60.31;99495.97;3183437;27;19930;-68
2023/07/04 01:24:26;;;;;;;;;;;;;;;23.39;60.72;99503.75;3183116;27;20301;-68
2023/07/04 01:26:01;;;;;;;;;;;;;;;23.39;60.67;99494.97;3183187;27;20037;-68
2023/07/04 01:27:35;;;;;;;;;;;;;;;23.38;60.36;99494.13;3183448;27;19919;-68
2023/07/04 01:29:07;;;;;;;;;;;;;;;23.35;60.43;99499.75;3158166;28;20040;-68
2023/07/04 01:30:41;;;;;;;;;;;;;;;23.32;60.89;99500.09;3182659;27;19923;-68
2023/07/04 01:32:13;;;;;;;;;;;;;;;23.27;61.10;99506.84;3183106;28;19942;-68
2023/07/04 01:33:44;;;;;;;;;;;;;;;23.24;61.14;99510.66;3183542;28;19926;-68
2023/07/04 01:35:18;;;;;;;;;;;;;;;23.21;61.26;99502.19;3183482;28;19931;-69
2023/07/04 01:36:49;;;;;;;;;;;;;;;23.19;61.37;99506.81;3182988;28;19988;-70
2023/07/04 01:38:21;;;;;;;;;;;;;;;23.15;61.13;99503.63;3183159;28;20396;-70
2023/07/04 01:39:51;;;;;;;;;;;;;;;23.12;61.47;99506.59;3183330;28;19919;-68
2023/07/04 01:41:24;;;;;;;;;;;;;;;23.11;61.34;99508.44;3183290;28;19929;-68
2023/07/04 01:42:57;;;;;;;;;;;;;;;23.12;61.10;99506.59;3183138;28;19950;-69
2023/07/04 01:44:28;;;;;;;;;;;;;;;23.14;61.30;99504.63;3183219;28;20328;-69
2023/07/04 01:46:01;;;;;;;;;;;;;;;23.13;61.18;99503.81;3183181;28;20064;-68
2023/07/04 01:47:33;;;;;;;;;;;;;;;23.13;61.16;99505.59;3176269;28;19919;-68
2023/07/04 01:49:04;;;;;;;;;;;;;;;23.14;61.01;99507.28;3183221;28;20311;-69
2023/07/04 01:50:35;;;;;;;;;;;;;;;23.16;61.18;99500.00;3181753;28;20489;-70
2023/07/04 01:52:07;;;;;;;;;;;;;;;23.17;61.07;99504.31;3183343;28;20006;-68
2023/07/04 01:53:38;;;;;;;;;;;;;;;23.17;60.70;99512.28;3183347;28;19919;-69
2023/07/04 01:55:11;;;;;;;;;;;;;;;23.16;60.77;99508.81;3158267;28;19927;-68
2023/07/04 01:56:41;;;;;;;;;;;;;;;23.17;61.03;99509.63;3182148;28;19923;-68
2023/07/04 01:58:14;;;;;;;;;;;;;;;23.16;60.75;99508.81;3183055;28;19919;-68
2023/07/04 01:59:45;;;;;;;;;;;;;;;23.13;60.83;99514.44;3183123;28;19920;-69
2023/07/04 02:01:17;;;;;;;;;;;;;;;23.13;61.07;99517.09;3174171;28;19930;-69
2023/07/04 02:02:48;;;;;;;;;;;;;;;23.12;60.86;99517.22;3179621;28;19984;-69
2023/07/04 02:04:20;;;;;;;;;;;;;;;23.13;60.89;99518.88;3182885;28;19920;-69
2023/07/04 02:05:51;;;;;;;;;;;;;;;23.11;60.90;99511.09;3183128;28;19980;-69
2023/07/04 02:07:23;;;;;;;;;;;;;;;23.10;61.20;99516.53;3182906;28;19924;-70
2023/07/04 02:08:54;;;;;;;;;;;;;;;23.09;61.12;99517.53;3183288;28;20297;-70
2023/07/04 02:10:26;;;;;;;;;;;;;;;23.09;61.18;99522.84;3183178;28;20386;-69
2023/07/04 02:11:57;;;;;;;;;;;;;;;23.09;60.98;99523.69;3183146;28;20368;-69
2023/07/04 02:13:29;;;;;;;;;;;;;;;23.11;60.90;99513.75;3183090;28;19919;-69
2023/07/04 02:15:00;;;;;;;;;;;;;;;23.12;60.96;99514.56;3183424;28;19934;-69
2023/07/04 02:16:32;;;;;;;;;;;;;;;23.11;61.06;99516.41;3180770;28;19920;-69
2023/07/04 02:18:04;;;;;;;;;;;;;;;23.11;61.00;99515.56;3171668;28;19968;-69
2023/07/04 02:19:35;;;;;;;;;;;;;;;23.08;60.99;99521.19;3183091;28;19923;-69
2023/07/04 02:21:06;;;;;;;;;;;;;;;23.06;61.21;99515.19;3183722;28;19930;-72
2023/07/04 02:22:40;;;;;;;;;;;;;;;23.02;61.10;99517.34;3183211;28;19919;-68
2023/07/04 02:24:11;;;;;;;;;;;;;;;22.93;61.26;99508.47;3182972;28;19976;-68
2023/07/04 02:25:42;;;;;;;;;;;;;;;23.01;61.37;99513.03;3182811;28;19924;-68
2023/07/04 02:27:14;;;;;;;;;;;;;;;23.02;61.53;99521.81;3182817;28;19940;-68
2023/07/04 02:28:47;;;;;;;;;;;;;;;23.00;61.48;99516.66;3182916;28;19980;-68
2023/07/04 02:30:18;;;;;;;;;;;;;;;22.99;61.55;99514.19;3183094;28;19930;-68
2023/07/04 02:31:50;;;;;;;;;;;;;;;22.93;61.72;99513.78;3183100;28;19946;-68
2023/07/04 02:33:20;;;;;;;;;;;;;;;22.90;61.81;99513.25;3182894;28;20287;-68
2023/07/04 02:34:52;;;;;;;;;;;;;;;22.87;61.83;99511.75;3182490;28;19920;-69
2023/07/04 02:36:24;;;;;;;;;;;;;;;22.87;61.91;99524.19;3182962;28;19926;-68
2023/07/04 02:37:56;;;;;;;;;;;;;;;22.86;61.71;99528.63;3184207;27;19919;-69
2023/07/04 02:39:27;;;;;;;;;;;;;;;22.85;61.85;99537.59;3185367;27;19928;-68
2023/07/04 02:40:59;;;;;;;;;;;;;;;22.85;61.94;99532.28;3185162;27;20297;-69
2023/07/04 02:42:31;;;;;;;;;;;;;;;22.84;61.69;99535.94;3182763;27;20404;-69
2023/07/04 02:44:02;;;;;;;;;;;;;;;22.85;61.89;99534.13;3177810;27;19923;-69
2023/07/04 02:45:34;;;;;;;;;;;;;;;22.84;61.58;99538.59;3185138;27;19919;-68
2023/07/04 02:47:06;;;;;;;;;;;;;;;22.85;61.54;99539.44;3179752;27;20245;-69
2023/07/04 02:48:36;;;;;;;;;;;;;;;22.85;61.96;99534.13;3172785;28;19981;-67
2023/07/04 02:50:08;;;;;;;;;;;;;;;22.84;61.73;99532.47;3184536;27;20590;-67
2023/07/04 02:51:40;;;;;;;;;;;;;;;22.80;61.99;99536.38;3185263;27;19919;-68
2023/07/04 02:53:10;;;;;;;;;;;;;;;22.77;61.83;99537.53;3184748;27;20416;-69
2023/07/04 02:54:42;;;;;;;;;;;;;;;22.74;62.26;99537.84;3185283;27;19919;-68
2023/07/04 02:56:13;;;;;;;;;;;;;;;22.71;62.08;99538.97;3185133;27;19926;-68
2023/07/04 02:57:45;;;;;;;;;;;;;;;22.70;62.35;99539.16;3184994;27;19934;-69
2023/07/04 02:59:18;;;;;;;;;;;;;;;22.71;62.37;99532.84;3185032;27;19923;-70
2023/07/04 03:00:50;;;;;;;;;;;;;;;22.70;62.22;99536.50;3180247;27;19919;-70
2023/07/04 03:02:21;;;;;;;;;;;;;;;22.70;62.42;99539.97;3178118;27;19930;-69
2023/07/04 03:03:52;;;;;;;;;;;;;;;22.71;62.50;99535.50;3185144;27;19998;-70
2023/07/04 03:05:23;;;;;;;;;;;;;;;22.72;62.42;99542.50;3184626;27;19919;-70
2023/07/04 03:06:55;;;;;;;;;;;;;;;22.73;62.43;99540.66;3184802;27;20378;-68
2023/07/04 03:08:25;;;;;;;;;;;;;;;22.73;62.39;99538.00;3184145;27;19927;-68
2023/07/04 03:09:57;;;;;;;;;;;;;;;22.70;62.55;99533.84;3185140;27;20160;-68
2023/07/04 03:11:29;;;;;;;;;;;;;;;22.69;62.48;99532.19;3184710;27;20543;-69
2023/07/04 03:13:00;;;;;;;;;;;;;;;;;;3182369;27;19919;-68
2023/07/04 03:14:33;;;;;;;;;;;;;;;22.65;62.45;99520.19;3184735;27;20320;-69
2023/07/04 03:16:05;;;;;;;;;;;;;;;22.65;62.54;99525.50;3185014;27;20006;-70
2023/07/04 03:17:35;;;;;;;;;;;;;;;22.67;62.60;99532.31;3173678;27;19923;-70
2023/07/04 03:19:07;;;;;;;;;;;;;;;22.66;62.31;99529.84;3182487;27;19919;-69
2023/07/04 03:20:39;;;;;;;;;;;;;;;22.66;62.52;99529.84;3185084;27;19919;-69
2023/07/04 03:22:11;;;;;;;;;;;;;;;22.64;62.70;99535.28;3184867;27;19919;-69
2023/07/04 03:23:42;;;;;;;;;;;;;;;22.59;62.85;99536.72;3185083;27;20297;-69
2023/07/04 03:25:15;;;;;;;;;;;;;;;22.55;62.81;99530.06;3184711;27;19930;-68
2023/07/04 03:26:47;;;;;;;;;;;;;;;22.52;63.25;99535.69;3184856;27;19923;-69
2023/07/04 03:28:17;;;;;;;;;;;;;;;22.47;63.10;99534.28;3184644;27;19923;-68
2023/07/04 03:29:50;;;;;;;;;;;;;;;22.44;63.37;99539.91;3184931;27;19920;-69
2023/07/04 03:31:22;;;;;;;;;;;;;;;22.42;63.30;99533.94;3184747;27;20391;-69
2023/07/04 03:32:53;;;;;;;;;;;;;;;22.41;63.40;99539.38;3184210;27;19927;-69
2023/07/04 03:34:25;;;;;;;;;;;;;;;22.40;63.68;99543.03;3184937;27;19927;-69
2023/07/04 03:35:57;;;;;;;;;;;;;;;22.41;63.43;99534.06;3184454;27;19923;-69
2023/07/04 03:37:29;;;;;;;;;;;;;;;22.43;63.34;99543.56;3184713;27;19927;-69
2023/07/04 03:39:01;;;;;;;;;;;;;;;22.45;63.26;99538.09;3182981;27;19987;-69
2023/07/04 03:40:32;;;;;;;;;;;;;;;22.44;63.19;99545.22;3159540;28;19973;-69
2023/07/04 03:42:04;;;;;;;;;;;;;;;22.46;63.09;99545.06;3183514;27;19926;-69
2023/07/04 03:43:36;;;;;;;;;;;;;;;22.45;63.51;99541.59;3172903;27;19931;-68
2023/07/04 03:45:08;;;;;;;;;;;;;;;22.46;63.19;99551.22;3182464;27;19920;-68
2023/07/04 03:46:40;;;;;;;;;;;;;;;22.47;63.15;99557.34;3184526;27;19919;-69
2023/07/04 03:48:11;;;;;;;;;;;;;;;22.46;63.14;99553.88;3184263;27;19972;-69
2023/07/04 03:49:43;;;;;;;;;;;;;;;22.46;63.25;99553.88;3183152;27;19942;-69
2023/07/04 03:51:14;;;;;;;;;;;;;;;22.45;63.15;99557.50;3184401;27;19919;-69
2023/07/04 03:52:45;;;;;;;;;;;;;;;22.46;63.31;99553.88;3184423;27;19919;-69
2023/07/04 03:54:17;;;;;;;;;;;;;;;22.49;63.18;99555.38;3184154;27;20241;-69
2023/07/04 03:55:49;;;;;;;;;;;;;;;22.51;63.05;99553.41;3184253;27;19927;-69
2023/07/04 03:57:21;;;;;;;;;;;;;;;22.54;63.07;99552.25;3184116;27;19926;-69
2023/07/04 03:58:51;;;;;;;;;;;;;;;22.53;63.02;99550.59;3184169;27;19919;-69
2023/07/04 04:00:24;;;;;;;;;;;;;;;22.49;63.35;99550.91;3183312;27;20314;-69
2023/07/04 04:01:54;;;;;;;;;;;;;;;22.48;63.27;99554.56;3172735;27;19924;-69
2023/07/04 04:03:26;;;;;;;;;;;;;;;22.45;63.36;99552.22;3184150;27;19929;-69
2023/07/04 04:04:57;;;;;;;;;;;;;;;22.47;63.60;99549.38;3184391;27;19919;-69
2023/07/04 04:06:28;;;;;;;;;;;;;;;22.45;63.41;99556.66;3184232;27;19946;-68
2023/07/04 04:08:00;;;;;;;;;;;;;;;22.41;63.80;99550.81;3183954;27;19930;-69
2023/07/04 04:09:31;;;;;;;;;;;;;;;22.40;63.67;99551.81;3184247;27;19923;-69
2023/07/04 04:11:03;;;;;;;;;;;;;;;22.41;63.48;99561.44;3184120;27;20320;-68
2023/07/04 04:12:35;;;;;;;;;;;;;;;22.43;63.86;99559.47;3183975;27;20289;-69
2023/07/04 04:14:07;;;;;;;;;;;;;;;22.45;63.40;99561.97;3184052;27;19966;-68
2023/07/04 04:15:40;;;;;;;;;;;;;;;22.48;63.60;99559.03;3184115;27;19946;-67
2023/07/04 04:17:11;;;;;;;;;;;;;;;22.51;63.47;99563.19;3176600;27;19931;-69
2023/07/04 04:18:43;;;;;;;;;;;;;;;22.55;63.40;99559.25;3177026;27;19919;-69
2023/07/04 04:20:14;;;;;;;;;;;;;;;22.57;63.16;99563.44;3184313;27;19972;-69
2023/07/04 04:21:45;;;;;;;;;;;;;;;22.59;63.08;99564.09;3184043;27;19919;-69
2023/07/04 04:23:17;;;;;;;;;;;;;;;22.61;63.18;99564.78;3184074;27;19923;-69
2023/07/04 04:24:48;;;;;;;;;;;;;;;22.60;62.99;99565.78;3183861;27;19923;-69
2023/07/04 04:26:19;;;;;;;;;;;;;;;22.62;62.89;99568.25;3184060;27;19926;-69
2023/07/04 04:27:51;;;;;;;;;;;;;;;22.65;63.07;99570.59;3183995;27;20490;-69
2023/07/04 04:29:22;;;;;;;;;;;;;;;22.65;63.20;99566.13;3184129;27;20304;-69
2023/07/04 04:30:55;;;;;;;;;;;;;;;22.64;63.34;99575.09;3158682;28;19950;-69
2023/07/04 04:32:26;;;;;;;;;;;;;;;22.64;63.13;99571.59;3183110;27;20402;-69
2023/07/04 04:33:57;;;;;;;;;;;;;;;22.64;63.33;99572.44;3172522;27;19920;-69
2023/07/04 04:35:29;;;;;;;;;;;;;;;22.67;63.27;99563.34;3179113;27;20405;-69
2023/07/04 04:37:01;;;;;;;;;;;;;;;22.70;62.98;99576.31;3181855;27;19942;-68
2023/07/04 04:38:31;;;;;;;;;;;;;;;22.72;63.18;99582.31;3183705;27;19919;-68
2023/07/04 04:40:04;;;;;;;;;;;;;;;22.74;62.83;99582.97;3174735;27;19920;-69
2023/07/04 04:41:37;;;;;;;;;;;;;;;22.74;63.25;99582.97;3182393;27;19927;-69
2023/07/04 04:43:09;;;;;;;;;;;;;;;22.75;63.08;99578.50;3176742;27;19999;-69
2023/07/04 04:44:41;;;;;;;;;;;;;;;22.80;62.84;99578.88;3177670;27;19968;-69
2023/07/04 04:46:14;;;;;;;;;;;;;;;22.84;63.04;99574.94;3183382;27;19919;-69
2023/07/04 04:47:52;;;;;;;;;;;;;;;22.87;62.81;99580.78;3183927;27;19938;-69
2023/07/04 04:49:24;;;;;;;;;;;;;;;22.92;62.60;99577.63;3183700;27;19923;-69
2023/07/04 04:50:56;;;;;;;;;;;;;;;22.97;62.74;99580.72;3183726;27;20335;-69
2023/07/04 04:52:29;;;;;;;;;;;;;;;23.03;62.57;99576.59;3183451;27;19923;-69
2023/07/04 04:54:02;;;;;;;;;;;;;;;23.07;62.34;99573.50;3183812;27;19919;-69
2023/07/04 04:55:35;;;;;;;;;;;;;;;23.13;62.14;99572.00;3183700;27;19976;-69
2023/07/04 04:57:06;;;;;;;;;;;;;;;23.17;61.86;99574.22;3183675;27;19931;-69
2023/07/04 04:58:37;;;;;;;;;;;;;;;23.23;61.74;99572.75;3183363;27;19926;-70
2023/07/04 05:00:10;;;;;;;;;;;;;;;23.27;61.72;99579.41;3183610;27;20400;-70
2023/07/04 05:01:45;;;;;;;;;;;;;;;23.32;61.87;99573.66;3171002;27;20320;-67
2023/07/04 05:03:15;;;;;;;;;;;;;;;23.36;61.52;99577.66;3183792;27;19934;-67
2023/07/04 05:04:47;;;;;;;;;;;;;;;23.39;61.75;99574.69;3183334;27;20325;-68
2023/07/04 05:06:18;;;;;;;;;;;;;;;23.43;61.63;99583.19;3183696;27;19976;-69
2023/07/04 05:07:50;;;;;;;;;;;;;;;23.48;61.22;99580.88;3183697;27;20041;-68
2023/07/04 05:09:21;;;;;;;;;;;;;;;23.51;61.48;99585.88;3183397;27;19931;-69
2023/07/04 05:10:57;;;;;;;;;;;;;;;23.54;60.96;99581.06;3183156;27;19930;-69
2023/07/04 05:12:29;;;;;;;;;;;;;;;23.57;60.92;99587.91;3183587;27;19923;-69
2023/07/04 05:14:00;;;;;;;;;;;;;;;23.58;61.09;99587.75;3183608;27;19977;-69
2023/07/04 05:15:31;;;;;;;;;;;;;;;23.59;61.02;99589.41;3183428;27;19971;-69
2023/07/04 05:17:04;;;;;;;;;;;;;;;23.62;60.67;99591.75;3176904;27;20293;-68
2023/07/04 05:18:37;;;;;;;;;;;;;;;23.68;60.64;99590.28;3177271;27;20599;-69
2023/07/04 05:20:13;;;;;;;;;;;;;;;23.70;60.84;99585.69;3183686;27;19926;-69
2023/07/04 05:21:47;;;;;;;;;;;;;;;23.72;60.54;99594.34;3183676;27;19966;-69
2023/07/04 05:23:19;;;;;;;;;;;;;;;23.76;60.48;99589.53;3183862;27;19988;-69
2023/07/04 05:24:51;;;;;;;;;;;;;;;23.79;60.70;99587.38;3183373;27;19920;-69
2023/07/04 05:26:23;;;;;;;;;;;;;;;23.83;60.54;99591.38;3183573;27;19920;-69
2023/07/04 05:27:55;;;;;;;;;;;;;;;23.90;60.46;99585.41;3183453;27;20304;-69
2023/07/04 05:29:26;;;;;;;;;;;;;;;23.95;60.17;99591.09;3183342;27;19923;-69
2023/07/04 05:30:57;;;;;;;;;;;;;;;24.00;60.19;99586.97;3174583;27;20021;-69
2023/07/04 05:32:30;;;;;;;;;;;;;;;24.05;59.82;99591.81;3174048;27;19935;-69
2023/07/04 05:34:02;;;;;;;;;;;;;;;24.11;59.97;99588.50;3183079;27;20311;-68
2023/07/04 05:35:33;;;;;;;;;;;;;;;24.16;59.56;99586.19;3178857;27;19934;-68
2023/07/04 05:37:05;;;;;;;;;;;;;;;24.21;59.64;99591.84;3181672;27;19919;-68
2023/07/04 05:38:36;;;;;;;;;;;;;;;24.27;59.49;99585.88;3175920;28;19962;-68
2023/07/04 05:40:10;;;;;;;;;;;;;;;24.31;59.45;99591.69;3183194;28;19926;-68
2023/07/04 05:41:41;;;;;;;;;;;;;;;24.37;59.29;99596.38;3183111;28;19923;-68
2023/07/04 05:43:13;;;;;;;;;;;;;;;24.42;59.04;99599.41;3183105;28;20403;-69
2023/07/04 05:44:45;;;;;;;;;;;;;;;24.45;58.91;99599.09;3182975;28;20415;-68
2023/07/04 05:46:16;;;;;;;;;;;;;;;24.47;59.00;99606.94;3182999;28;20323;-68
2023/07/04 05:47:49;;;;;;;;;;;;;;;24.47;58.75;99601.59;3183672;28;19930;-68
2023/07/04 05:49:21;;;;;;;;;;;;;;;24.45;58.57;99601.75;3183244;28;19927;-69
2023/07/04 05:50:52;;;;;;;;;;;;;;;24.45;58.47;99600.91;3183019;28;19975;-69
2023/07/04 05:52:24;;;;;;;;;;;;;;;24.49;58.70;99597.78;3183182;28;20385;-69
2023/07/04 05:53:55;;;;;;;;;;;;;;;24.56;58.42;99600.63;3183073;28;20376;-69
2023/07/04 05:55:27;;;;;;;;;;;;;;;24.62;58.31;99596.47;3183329;28;19976;-69
2023/07/04 05:56:59;;;;;;;;;;;;;;;24.63;58.40;99606.09;3182551;28;19920;-68
2023/07/04 05:58:29;;;;;;;;;;;;;;;24.67;58.02;99596.81;3183262;28;19972;-68
2023/07/04 06:00:01;;;;;;;;;;;;;;;24.71;57.99;99601.63;3183415;28;20409;-69
2023/07/04 06:01:33;;;;;;;;;;;;;;;24.76;57.78;99587.81;3172669;28;19919;-67
2023/07/04 06:03:05;;;;;;;;;;;;;;;24.81;57.74;99585.47;3183021;28;20416;-70
2023/07/04 06:04:37;;;;;;;;;;;;;;;24.89;57.59;99589.97;3183090;28;19980;-69
2023/07/04 06:06:15;;;;;;;;;;;;;;;24.96;57.83;99589.16;3183180;28;19926;-70
2023/07/04 06:07:46;;;;;;;;;;;;;;;25.05;57.78;99595.28;3183108;28;19923;-69
2023/07/04 06:09:18;;;;;;;;;;;;;;;25.11;57.38;99583.13;3183005;28;19930;-70
2023/07/04 06:10:57;;;;;;;;;;;;;;;25.13;57.25;99589.13;3183223;28;19930;-68
2023/07/04 06:12:29;;;;;;;;;;;;;;;25.13;57.30;99583.81;3183599;27;19927;-69
2023/07/04 06:14:01;;;;;;;;;;;;;;;25.14;57.39;99591.69;3185612;27;19923;-69
2023/07/04 06:15:33;;;;;;;;;;;;;;;25.21;57.29;99588.34;3185604;27;19919;-71
2023/07/04 06:17:04;;;;;;;;;;;;;;;25.27;57.05;99590.31;3185041;27;19919;-69
2023/07/04 06:18:36;;;;;;;;;;;;;;;25.32;56.92;99583.50;3185659;27;19980;-68
2023/07/04 06:20:08;;;;;;;;;;;;;;;25.39;56.86;99588.97;3185201;27;19919;-67
2023/07/04 06:21:40;;;;;;;;;;;;;;;25.45;56.55;99582.94;3185332;27;19991;-68
2023/07/04 06:23:12;;;;;;;;;;;;;;;25.51;56.42;99589.44;3185589;27;19930;-68
2023/07/04 06:24:46;;;;;;;;;;;;;;;25.57;56.53;99586.91;3185364;27;20407;-69
2023/07/04 06:26:17;;;;;;;;;;;;;;;25.62;56.64;99584.56;3185072;27;19919;-69
2023/07/04 06:27:48;;;;;;;;;;;;;;;25.70;56.05;99585.53;3183720;27;19923;-70
2023/07/04 06:29:19;;;;;;;;;;;;;;;25.75;56.01;99584.03;3173151;27;20410;-69
2023/07/04 06:30:51;;;;;;;;;;;;;;;25.82;55.93;99584.19;3185607;27;19939;-69
2023/07/04 06:32:23;;;;;;;;;;;;;;;25.87;55.70;99579.16;3177662;27;19981;-69
2023/07/04 06:33:57;;;;;;;;;;;;;;;25.94;55.94;99579.28;3184621;27;19923;-69
2023/07/04 06:35:28;;;;;;;;;;;;;;;25.98;55.42;99580.63;3185501;27;19927;-69
2023/07/04 06:37:00;;;;;;;;;;;;;;;26.04;55.81;99580.75;3184942;27;19919;-69
2023/07/04 06:38:31;;;;;;;;;;;;;;;26.17;55.49;99574.84;3185417;27;19987;-68
2023/07/04 06:40:03;;;;;;;;;;;;;;;26.28;54.94;99578.97;3185422;27;19980;-69
2023/07/04 06:41:35;;;;;;;;;;;;;;;26.37;54.80;99577.91;3185601;27;20383;-69
2023/07/04 06:43:06;;;;;;;;;;;;;;;26.41;54.64;99575.72;3184402;27;19930;-68
2023/07/04 06:44:38;;;;;;;;;;;;;;;26.44;54.45;99568.16;3179781;27;19919;-69
2023/07/04 06:46:10;;;;;;;;;;;;;;;26.47;54.36;99575.84;3185184;27;19968;-69
2023/07/04 06:47:42;;;;;;;;;;;;;;;26.49;54.44;99568.50;3185395;27;19985;-69
2023/07/04 06:49:14;;;;;;;;;;;;;;;26.56;54.32;99568.63;3185458;27;20014;-69
2023/07/04 06:50:55;;;;;;;;;;;;;;;26.65;54.15;99569.38;3185083;27;20396;-69
2023/07/04 06:52:27;;;;;;;;;;;;;;;26.72;53.98;99562.34;3185069;27;19923;-69
2023/07/04 06:53:58;;;;;;;;;;;;;;;26.77;53.88;99562.63;3185319;27;19919;-71
2023/07/04 06:55:30;;;;;;;;;;;;;;;26.80;53.30;99556.94;3184938;27;19919;-68
2023/07/04 06:57:04;;;;;;;;;;;;;;;26.82;53.37;99557.56;3184847;27;19927;-69
2023/07/04 06:58:41;;;;;;;;;;;;;;;26.90;53.48;99559.34;3185350;27;19930;-69
2023/07/04 07:00:13;;;;;;;;;;;;;;;26.95;53.31;99562.31;3184866;27;19919;-69
2023/07/04 07:01:45;;;;;;;;;;;;;;;26.99;52.71;99561.75;3172984;28;19920;-70
2023/07/04 07:03:15;;;;;;;;;;;;;;;26.99;52.34;99559.09;3185039;27;19942;-68
2023/07/04 07:04:48;;;;;;;;;;;;;;;27.03;52.47;99556.03;3185187;27;19919;-68
2023/07/04 07:06:19;;;;;;;;;;;;;;;27.09;52.52;99561.50;3185019;27;20471;-69
2023/07/04 07:07:50;;;;;;;;;;;;;;;27.16;52.34;99554.44;3184887;27;19919;-70
2023/07/04 07:09:22;;;;;;;;;;;;;;;27.25;52.24;99554.38;3184735;27;20401;-69
2023/07/04 07:10:55;;;;;;;;;;;;;;;27.33;52.00;99557.78;3184890;27;19919;-70
2023/07/04 07:12:26;;;;;;;;;;;;;;;27.39;52.25;99558.88;3184916;27;20018;-70
2023/07/04 07:13:58;;;;;;;;;;;;;;;27.40;52.08;99545.34;3184899;27;19919;-70
2023/07/04 07:15:30;;;;;;;;;;;;;;;27.55;51.98;99556.03;3184764;27;19919;-73
2023/07/04 07:17:02;;;;;;;;;;;;;;;27.63;51.69;99553.28;3178501;27;19923;-70
2023/07/04 07:18:34;;;;;;;;;;;;;;;27.72;51.35;99556.69;3177899;27;19924;-69
2023/07/04 07:20:07;;;;;;;;;;;;;;;27.80;51.12;99553.91;3184746;27;19919;-70
2023/07/04 07:21:39;;;;;;;;;;;;;;;27.90;51.13;99553.63;3184605;27;19919;-69
2023/07/04 07:23:10;;;;;;;;;;;;;;;28.02;51.09;99553.97;3184602;27;20399;-69
2023/07/04 07:24:42;;;;;;;;;;;;;;;28.09;50.68;99554.88;3179749;27;19927;-69
2023/07/04 07:26:15;;;;;;;;;;;;;;;28.21;50.83;99555.22;3184767;27;20273;-69
2023/07/04 07:27:47;;;;;;;;;;;;;;;28.31;50.17;99551.22;3184119;27;19924;-69
2023/07/04 07:29:18;;;;;;;;;;;;;;;28.37;49.76;99555.00;3171891;28;19923;-69
2023/07/04 07:30:49;;;;;;;;;;;;;;;28.37;49.77;99549.63;3172083;28;19926;-69
2023/07/04 07:32:21;;;;;;;;;;;;;;;28.41;49.97;99556.28;3171890;28;19924;-69
2023/07/04 07:33:53;;;;;;;;;;;;;;;28.46;49.58;99551.19;3183521;27;19934;-69
2023/07/04 07:35:26;;;;;;;;;;;;;;;28.55;49.53;99554.56;3184474;27;20315;-69
2023/07/04 07:36:57;;;;;;;;;;;;;;;28.62;49.26;99551.94;3184366;27;19931;-69
2023/07/04 07:38:28;;;;;;;;;;;;;;;28.67;48.86;99545.00;3184585;27;19919;-69
2023/07/04 07:39:59;;;;;;;;;;;;;;;28.74;49.14;99543.19;3184687;27;19941;-69
2023/07/04 07:41:31;;;;;;;;;;;;;;;28.82;49.08;99552.94;3184561;27;19926;-69
2023/07/04 07:43:02;;;;;;;;;;;;;;;28.87;48.53;99553.22;3177847;27;19924;-69
2023/07/04 07:44:34;;;;;;;;;;;;;;;28.85;48.19;99541.84;3178083;27;19919;-69
2023/07/04 07:46:06;;;;;;;;;;;;;;;28.86;48.25;99543.50;3184448;27;19920;-69
2023/07/04 07:47:37;;;;;;;;;;;;;;;28.94;48.24;99543.34;3184472;27;19923;-69
2023/07/04 07:49:09;;;;;;;;;;;;;;;29.01;48.03;99536.19;3184486;27;20384;-69
2023/07/04 07:50:42;;;;;;;;;;;;;;;29.10;48.20;99542.25;3184159;27;20340;-70
2023/07/04 07:52:14;;;;;;;;;;;;;;;29.18;47.45;99536.75;3184458;27;20288;-69
2023/07/04 07:53:46;;;;;;;;;;;;;;;29.22;47.55;99529.13;3184008;27;20409;-70
2023/07/04 07:55:18;;;;;;;;;;;;;;;29.27;47.10;99523.19;3184442;27;20375;-69
2023/07/04 07:56:48;;;;;;;;;;;;;;;29.40;47.09;99531.28;3183961;27;19919;-69
2023/07/04 07:58:20;;;;;;;;;;;;;;;29.54;46.75;99526.84;3171936;28;19920;-69
2023/07/04 07:59:52;;;;;;;;;;;;;;;29.64;46.56;99528.19;3171327;28;19924;-68